Time;durP1;ratioP1;P1;durP2;ratioP2;P2;SDS_P1;SDS_P2;PMS_P1;PMS_P2;Temp;Humidity;BMP_temperature;BMP_pressure;BME280_temperature;BME280_humidity;BME280_pressure;Samples;Min_cycle;Max_cycle;Signal;HPM_P1;HPM_P2
2023/12/03 00:00:02;;;;;;;0.20;0.10;;;;;;;-2.72;87.89;100731.22;5071547;28;20489;-49
2023/12/03 00:02:29;;;;;;;0.20;0.10;;;;;;;-2.86;87.72;100731.63;5072839;28;20486;-51
2023/12/03 00:04:58;;;;;;;0.20;0.10;;;;;;;-2.66;87.40;100734.84;5071811;28;20474;-48
2023/12/03 00:07:24;;;;;;;0.20;0.10;;;;;;;-2.80;87.02;100731.81;5067178;28;20888;-48
2023/12/03 00:09:52;;;;;;;0.20;0.10;;;;;;;-2.94;87.22;100741.75;5064878;28;20500;-50
2023/12/03 00:12:18;;;;;;;0.20;0.20;;;;;;;-2.79;86.99;100739.66;5058710;28;20896;-47
2023/12/03 00:14:44;;;;;;;0.20;0.10;;;;;;;-2.82;86.49;100738.69;5053619;28;20536;-48
2023/12/03 00:17:11;;;;;;;0.20;0.10;;;;;;;-2.88;86.65;100741.06;5072165;28;20551;-49
2023/12/03 00:19:38;;;;;;;0.20;0.10;;;;;;;-3.00;87.13;100749.38;5072613;28;20574;-48
2023/12/03 00:22:05;;;;;;;0.20;0.10;;;;;;;-3.09;87.74;100749.03;5065566;28;20486;-47
2023/12/03 00:24:32;;;;;;;0.20;0.13;;;;;;;-2.99;87.94;100749.41;5065502;28;20470;-48
2023/12/03 00:26:59;;;;;;;0.20;0.10;;;;;;;-3.03;87.88;100747.53;5072365;28;20450;-49
2023/12/03 00:29:25;;;;;;;0.20;0.10;;;;;;;-3.31;88.44;100747.41;5072368;28;20442;-47
2023/12/03 00:31:52;;;;;;;0.20;0.10;;;;;;;-3.23;88.81;100739.91;5064151;28;20466;-47
2023/12/03 00:34:18;;;;;;;0.20;0.10;;;;;;;-3.23;88.70;100739.91;5065618;28;21116;-48
2023/12/03 00:36:45;;;;;;;0.20;0.10;;;;;;;-3.06;88.95;100750.03;5072368;28;20533;-48
2023/12/03 00:39:11;;;;;;;0.20;0.10;;;;;;;-3.14;88.67;100748.91;5071006;28;20477;-49
2023/12/03 00:41:38;;;;;;;0.20;0.10;;;;;;;-3.42;88.10;100756.59;5059585;28;20886;-47
2023/12/03 00:44:04;;;;;;;0.20;0.10;;;;;;;-3.42;88.52;100761.78;5067068;28;20502;-49
2023/12/03 00:46:31;;;;;;;0.20;0.10;;;;;;;-3.40;88.30;100765.31;5070971;28;20541;-50
2023/12/03 00:48:57;;;;;;;0.20;0.10;;;;;;;-3.37;87.30;100776.69;5070561;28;20552;-48
2023/12/03 00:51:24;;;;;;;0.20;0.10;;;;;;;-3.31;87.49;100770.81;5059912;28;20533;-48
2023/12/03 00:53:51;;;;;;;0.20;0.10;;;;;;;-3.31;87.60;100776.91;5071701;28;20445;-48
2023/12/03 00:56:17;;;;;;;0.20;0.10;;;;;;;-3.33;87.68;100778.56;5063903;28;20450;-48
2023/12/03 00:58:43;;;;;;;0.20;0.10;;;;;;;-3.43;88.82;100776.47;5064469;28;20465;-48
2023/12/03 01:01:10;;;;;;;0.20;0.10;;;;;;;-3.31;88.31;100779.50;5060080;28;20809;-48
2023/12/03 01:03:36;;;;;;;0.20;0.10;;;;;;;-3.33;88.16;100777.69;5071872;28;20454;-49
2023/12/03 01:06:03;;;;;;;0.20;0.10;;;;;;;-3.30;87.78;100777.78;5071770;28;20508;-47
2023/12/03 01:08:29;;;;;;;0.20;0.10;;;;;;;-3.36;87.50;100780.19;5058692;28;20529;-48
2023/12/03 01:10:56;;;;;;;0.20;0.10;;;;;;;-3.08;88.22;100789.81;5071415;28;20447;-48
2023/12/03 01:13:22;;;;;;;0.20;0.10;;;;;;;-2.91;89.18;100791.25;5066760;28;20446;-49
2023/12/03 01:15:49;;;;;;;0.20;0.10;;;;;;;-3.02;88.47;100793.50;5059325;28;20477;-48
2023/12/03 01:18:16;;;;;;;0.20;0.10;;;;;;;-2.87;88.35;100793.16;5069277;28;20537;-49
2023/12/03 01:20:46;;;;;;;0.20;0.10;;;;;;;-2.92;87.26;100792.09;5060804;28;20858;-50
2023/12/03 01:23:12;;;;;;;0.20;0.10;;;;;;;-2.93;88.40;100792.94;5071371;28;20453;-49
2023/12/03 01:25:39;;;;;;;0.20;0.10;;;;;;;-2.93;87.91;100792.03;5071683;28;20553;-49
2023/12/03 01:28:05;;;;;;;0.20;0.10;;;;;;;-2.83;88.54;100792.41;5068232;28;20459;-49
2023/12/03 01:30:32;;;;;;;0.20;0.10;;;;;;;-2.81;88.57;100801.13;5061150;28;20449;-48
2023/12/03 01:32:58;;;;;;;0.20;0.10;;;;;;;-2.74;89.47;100794.41;5071330;28;20450;-48
2023/12/03 01:35:25;;;;;;;0.20;0.10;;;;;;;-2.66;89.26;100805.09;5071370;28;20474;-49
2023/12/03 01:37:51;;;;;;;0.20;0.10;;;;;;;-2.55;89.11;100799.41;5068110;28;20458;-49
2023/12/03 01:40:18;;;;;;;0.20;0.10;;;;;;;-2.51;89.08;100798.66;5054233;28;20487;-48
2023/12/03 01:42:45;;;;;;;0.20;0.10;;;;;;;-2.34;90.00;100803.50;5067931;28;20930;-49
2023/12/03 01:45:11;;;;;;;0.20;0.10;;;;;;;-2.52;88.86;100802.09;5066529;28;20466;-50
2023/12/03 01:47:38;;;;;;;0.53;0.50;;;;;;;-2.47;89.46;100810.03;5067833;28;20454;-49
2023/12/03 01:50:06;;;;;;;0.20;0.10;;;;;;;-2.51;90.03;100811.66;5061704;28;20532;-49
2023/12/03 01:52:35;;;;;;;0.20;0.10;;;;;;;-2.52;91.11;100812.50;5071154;28;20816;-47
2023/12/03 01:55:03;;;;;;;0.20;0.10;;;;;;;-2.44;90.99;100804.94;5071382;28;20528;-48
2023/12/03 01:57:30;;;;;;;0.20;0.10;;;;;;;-2.33;91.10;100813.06;5056944;28;20528;-49
2023/12/03 01:59:57;;;;;;;0.20;0.10;;;;;;;-2.33;90.02;100813.06;5060334;28;20540;-49
2023/12/03 02:02:24;;;;;;;0.20;0.10;;;;;;;-2.20;91.54;100815.22;5068839;28;20527;-48
2023/12/03 02:04:50;;;;;;;0.20;0.10;;;;;;;-2.25;90.90;100817.69;5071044;28;20466;-49
2023/12/03 02:07:17;;;;;;;0.20;0.10;;;;;;;-2.22;90.42;100817.78;5066797;28;20880;-48
2023/12/03 02:09:44;;;;;;;0.20;0.10;;;;;;;-2.16;90.26;100819.72;5062966;28;20453;-49
2023/12/03 02:12:11;;;;;;;0.20;0.10;;;;;;;-2.23;90.74;100817.75;5063000;28;20556;-48
2023/12/03 02:14:37;;;;;;;0.20;0.10;;;;;;;-2.17;91.02;100821.44;5053025;28;20548;-50
2023/12/03 02:17:04;;;;;;;0.20;0.10;;;;;;;-1.98;90.01;100812.47;5068869;28;20540;-50
2023/12/03 02:19:30;;;;;;;0.20;0.10;;;;;;;-2.19;91.03;100817.03;5059305;28;21070;-50
2023/12/03 02:21:56;;;;;;;0.20;0.10;;;;;;;-1.91;90.83;100822.25;5060872;28;20457;-50
2023/12/03 02:24:23;;;;;;;0.20;0.10;;;;;;;-1.92;90.74;100819.56;5070313;28;21006;-50
2023/12/03 02:26:49;;;;;;;0.20;0.10;;;;;;;-1.82;89.89;100824.22;5058842;28;20938;-51
2023/12/03 02:29:16;;;;;;;0.30;0.20;;;;;;;-1.80;89.66;100812.13;5055087;28;20465;-50
2023/12/03 02:31:42;;;;;;;0.20;0.10;;;;;;;-1.86;90.31;100815.44;5054918;28;20829;-51
2023/12/03 02:34:13;;;;;;;0.20;0.10;;;;;;;-1.71;90.20;100817.59;5054556;28;21005;-51
2023/12/03 02:36:39;;;;;;;0.20;0.10;;;;;;;-1.78;90.29;100813.06;5054958;28;20834;-51
2023/12/03 02:39:06;;;;;;;0.20;0.10;;;;;;;-1.90;89.63;100815.31;5054954;28;20455;-51
2023/12/03 02:41:32;;;;;;;0.20;0.20;;;;;;;-1.86;90.46;100823.25;5054769;28;20537;-50
2023/12/03 02:43:59;;;;;;;0.20;0.10;;;;;;;-1.88;90.24;100826.66;5054324;28;20450;-50
2023/12/03 02:46:26;;;;;;;0.20;0.10;;;;;;;-1.94;90.41;100831.66;5054384;28;20442;-51
2023/12/03 02:48:52;;;;;;;0.30;0.30;;;;;;;-1.89;90.32;100843.13;5054593;28;20447;-51
2023/12/03 02:51:19;;;;;;;0.20;0.10;;;;;;;-2.02;90.02;100839.25;5054613;28;20621;-51
2023/12/03 02:53:48;;;;;;;0.20;0.10;;;;;;;-2.11;90.01;100838.97;5062248;28;20445;-50
2023/12/03 02:56:15;;;;;;;0.20;0.10;;;;;;;-2.30;89.35;100840.13;5068160;28;20475;-51
2023/12/03 02:58:41;;;;;;;0.20;0.10;;;;;;;-2.28;90.05;100841.03;5067421;28;21013;-51
2023/12/03 03:01:08;;;;;;;0.20;0.10;;;;;;;-2.22;90.54;100848.16;5073228;28;20990;-50
2023/12/03 03:03:34;;;;;;;0.20;0.10;;;;;;;-2.34;90.09;100840.81;5060588;28;20544;-51
2023/12/03 03:06:01;;;;;;;0.20;0.10;;;;;;;-2.33;89.80;100842.63;5074117;28;20462;-51
2023/12/03 03:08:28;;;;;;;0.20;0.10;;;;;;;-2.39;90.38;100842.41;5060544;28;21009;-51
2023/12/03 03:10:54;;;;;;;0.20;0.10;;;;;;;-2.36;90.26;100844.22;5072955;28;20537;-50
2023/12/03 03:13:21;;;;;;;0.20;0.10;;;;;;;-2.47;89.55;100843.88;5054106;28;20545;-50
2023/12/03 03:15:47;;;;;;;0.20;0.10;;;;;;;-2.49;90.64;100843.81;5053862;28;20486;-50
2023/12/03 03:18:13;;;;;;;0.20;0.10;;;;;;;-2.51;90.22;100850.69;5055471;28;20458;-50
2023/12/03 03:20:40;;;;;;;0.20;0.10;;;;;;;-2.28;90.59;100840.16;5073278;28;20490;-50
2023/12/03 03:23:07;;;;;;;0.20;0.10;;;;;;;-2.20;90.28;100843.88;5060341;28;20965;-50
2023/12/03 03:25:33;;;;;;;0.20;0.10;;;;;;;-2.17;90.63;100851.81;5073920;28;20505;-50
2023/12/03 03:28:00;;;;;;;0.20;0.10;;;;;;;-2.26;89.58;100854.09;5073890;28;20970;-50
2023/12/03 03:30:26;;;;;;;0.20;0.10;;;;;;;-2.06;90.37;100857.31;5072920;28;20629;-51
2023/12/03 03:32:53;;;;;;;0.20;0.10;;;;;;;-2.11;90.21;100847.66;5060166;28;21021;-50
2023/12/03 03:35:19;;;;;;;0.20;0.10;;;;;;;-2.27;89.84;100849.72;5073551;28;20473;-51
2023/12/03 03:37:45;;;;;;;0.20;0.10;;;;;;;-2.24;89.89;100850.69;5073276;28;20556;-51
2023/12/03 03:40:12;;;;;;;0.20;0.10;;;;;;;-2.28;90.57;100850.56;5072172;28;20482;-51
2023/12/03 03:42:40;;;;;;;0.20;0.10;;;;;;;-2.24;91.20;100849.81;5060001;28;20443;-51
2023/12/03 03:45:07;;;;;;;0.20;0.10;;;;;;;-2.11;90.59;100847.66;5067949;28;20518;-51
2023/12/03 03:47:35;;;;;;;0.20;0.10;;;;;;;-2.05;89.98;100856.50;5073094;28;21014;-51
2023/12/03 03:50:04;;;;;;;0.20;0.10;;;;;;;-2.35;90.05;100857.28;5072920;28;20476;-50
2023/12/03 03:52:31;;;;;;;0.20;0.10;;;;;;;-2.31;91.02;100855.69;5056369;28;20454;-50
2023/12/03 03:54:57;;;;;;;0.20;0.10;;;;;;;-2.19;90.49;100856.97;5073070;28;20466;-51
2023/12/03 03:57:24;;;;;;;0.20;0.10;;;;;;;-2.20;90.58;100856.88;5059560;28;20451;-51
2023/12/03 03:59:51;;;;;;;0.20;0.10;;;;;;;-2.16;89.97;100867.47;5073457;28;20494;-50
2023/12/03 04:02:17;;;;;;;0.20;0.10;;;;;;;-2.10;89.43;100870.25;5058855;28;20458;-51
2023/12/03 04:04:44;;;;;;;0.20;0.10;;;;;;;-2.23;89.04;100885.44;5072918;28;20526;-50
2023/12/03 04:07:10;;;;;;;0.20;0.10;;;;;;;-2.46;88.79;100882.09;5069255;28;20451;-51
2023/12/03 04:09:38;;;;;;;0.20;0.10;;;;;;;-2.81;89.36;100884.38;5063727;28;20456;-50
2023/12/03 04:12:04;;;;;;;0.20;0.10;;;;;;;-2.88;89.90;100891.91;5065265;28;20554;-51
2023/12/03 04:14:31;;;;;;;0.20;0.10;;;;;;;-2.85;90.39;100882.50;5063221;28;20489;-50
2023/12/03 04:16:58;;;;;;;0.20;0.10;;;;;;;-2.91;90.50;100887.47;5070831;28;20720;-51
2023/12/03 04:19:25;;;;;;;0.20;0.10;;;;;;;-3.06;90.74;100893.03;5072822;28;20885;-51
2023/12/03 04:21:51;;;;;;;0.20;0.10;;;;;;;-3.02;90.27;100899.22;5067250;28;20991;-51
2023/12/03 04:24:18;;;;;;;0.20;0.10;;;;;;;-3.08;90.08;100902.47;5064261;28;20877;-50
2023/12/03 04:26:44;;;;;;;0.20;0.10;;;;;;;-3.03;89.91;100900.91;5072373;28;20450;-50
2023/12/03 04:29:11;;;;;;;0.20;0.10;;;;;;;-3.12;89.22;100895.41;5072585;28;20823;-50
2023/12/03 04:31:38;;;;;;;0.20;0.10;;;;;;;-3.22;89.65;100902.81;5066199;28;20451;-50
2023/12/03 04:34:05;;;;;;;0.20;0.10;;;;;;;-3.36;90.72;100895.41;5064444;28;21002;-49
2023/12/03 04:36:32;;;;;;;2.13;2.03;;;;;;;-3.36;90.56;100899.72;5072162;28;20450;-49
2023/12/03 04:38:58;;;;;;;0.20;0.10;;;;;;;-3.40;90.75;100903.91;5072213;28;20445;-50
2023/12/03 04:41:33;;;;;;;0.20;0.10;;;;;;;-3.48;89.93;100900.13;5065629;28;20540;-50
2023/12/03 04:43:59;;;;;;;0.20;0.10;;;;;;;-3.43;90.08;100902.88;5060319;28;20537;-49
2023/12/03 04:46:26;;;;;;;0.20;0.10;;;;;;;-3.54;89.45;100910.31;5072236;28;20456;-49
2023/12/03 04:48:52;;;;;;;0.20;0.10;;;;;;;-3.51;89.52;100915.63;5070810;28;20489;-49
2023/12/03 04:51:19;;;;;;;0.20;0.10;;;;;;;-3.40;90.80;100919.50;5058787;28;20442;-50
2023/12/03 04:53:45;;;;;;;0.20;0.10;;;;;;;-3.41;90.45;100912.53;5065423;28;20500;-50
2023/12/03 04:56:12;;;;;;;0.20;0.10;;;;;;;-3.41;90.56;100928.13;5064921;28;20450;-50
2023/12/03 04:58:38;;;;;;;0.20;0.10;;;;;;;-3.33;90.86;100925.81;5065990;28;20450;-50
2023/12/03 05:01:05;;;;;;;0.20;0.10;;;;;;;-3.38;90.22;100916.97;5063704;28;20489;-50
2023/12/03 05:03:31;;;;;;;0.20;0.10;;;;;;;-3.29;91.79;100919.88;5066142;28;20885;-49
2023/12/03 05:05:58;;;;;;;0.30;0.20;;;;;;;-2.92;92.83;100919.50;5060095;28;20519;-50
2023/12/03 05:08:24;;;;;;;0.20;0.10;;;;;;;-2.78;92.59;100905.28;5058360;28;20469;-49
2023/12/03 05:10:51;;;;;;;0.20;0.10;;;;;;;-2.84;91.72;100912.88;5063894;28;20539;-50
2023/12/03 05:13:17;;;;;;;0.20;0.10;;;;;;;-2.78;91.36;100915.69;5065746;28;20560;-50
2023/12/03 05:15:44;;;;;;;0.20;0.10;;;;;;;-2.69;91.95;100921.22;5059433;28;20573;-49
2023/12/03 05:18:10;;;;;;;0.20;0.10;;;;;;;-2.81;91.33;100906.91;5071803;28;20450;-50
2023/12/03 05:20:37;;;;;;;0.20;0.10;;;;;;;-2.77;91.12;100913.97;5063980;28;20489;-50
2023/12/03 05:23:03;;;;;;;0.20;0.10;;;;;;;-2.77;91.26;100916.56;5053798;28;20455;-48
2023/12/03 05:25:30;;;;;;;0.20;0.10;;;;;;;-2.91;91.39;100915.19;5062358;28;20469;-50
2023/12/03 05:27:56;;;;;;;0.20;0.10;;;;;;;-2.97;91.45;100905.47;5069311;28;20439;-51
2023/12/03 05:30:23;;;;;;;0.20;0.10;;;;;;;-2.91;91.93;100908.28;5071760;28;20448;-49
2023/12/03 05:32:49;;;;;;;0.20;0.10;;;;;;;-2.76;91.80;100910.53;5071506;28;20445;-49
2023/12/03 05:35:16;;;;;;;2.43;2.33;;;;;;;-2.60;92.41;100906.78;5067181;28;20512;-50
2023/12/03 05:37:42;;;;;;;0.20;0.10;;;;;;;-2.81;91.40;100918.19;5071585;28;20524;-49
2023/12/03 05:40:09;;;;;;;0.20;0.10;;;;;;;-2.79;90.07;100916.50;5059436;28;20545;-50
2023/12/03 05:42:36;;;;;;;0.30;0.20;;;;;;;-2.87;90.12;100911.91;5071289;28;20537;-50
2023/12/03 05:45:03;;;;;;;0.20;0.10;;;;;;;-2.99;91.11;100928.81;5065342;28;20478;-49
2023/12/03 05:47:31;;;;;;;0.20;0.10;;;;;;;-2.94;91.01;100912.50;5068150;28;20460;-50
2023/12/03 05:50:00;;;;;;;0.20;0.10;;;;;;;-3.00;90.78;100929.66;5064443;28;20446;-49
2023/12/03 05:52:27;;;;;;;0.20;0.10;;;;;;;-2.76;90.28;100934.81;5057960;28;20457;-50
2023/12/03 05:54:54;;;;;;;0.20;0.10;;;;;;;-3.02;89.05;100936.50;5067040;28;21057;-50
2023/12/03 05:57:21;;;;;;;0.20;0.10;;;;;;;-3.24;89.94;100931.34;5068734;28;20482;-50
2023/12/03 05:59:47;;;;;;;0.20;0.10;;;;;;;-3.53;91.55;100932.84;5065702;28;20460;-50
2023/12/03 06:02:14;;;;;;;0.20;0.10;;;;;;;-3.35;92.10;100930.94;5069022;28;20564;-50
2023/12/03 06:04:40;;;;;;;0.20;0.10;;;;;;;-3.38;91.64;100933.44;5074796;28;20473;-50
2023/12/03 06:07:07;;;;;;;0.20;0.10;;;;;;;-3.45;90.74;100927.94;5069876;28;20931;-50
2023/12/03 06:09:34;;;;;;;0.20;0.10;;;;;;;-3.49;90.68;100926.06;5059906;28;20461;-50
2023/12/03 06:12:00;;;;;;;0.20;0.10;;;;;;;-3.51;90.98;100927.72;5062248;28;20465;-51
2023/12/03 06:14:26;;;;;;;0.20;0.10;;;;;;;-3.55;90.95;100931.03;5055085;28;20553;-50
2023/12/03 06:16:53;;;;;;;0.20;0.10;;;;;;;-3.66;91.16;100933.22;5072131;28;20449;-50
2023/12/03 06:19:19;;;;;;;0.20;0.10;;;;;;;-3.70;92.68;100933.91;5072581;28;20450;-49
2023/12/03 06:21:46;;;;;;;0.20;0.10;;;;;;;-3.49;95.10;100933.84;5073427;28;20863;-50
2023/12/03 06:24:13;;;;;;;0.20;0.10;;;;;;;-3.34;93.62;100935.31;5070631;28;20496;-49
2023/12/03 06:26:39;;;;;;;0.20;0.10;;;;;;;-3.45;92.05;100935.72;5061378;28;20454;-49
2023/12/03 06:29:06;;;;;;;0.20;0.10;;;;;;;-3.53;90.94;100929.38;5070092;28;20914;-50
2023/12/03 06:31:33;;;;;;;0.20;0.10;;;;;;;-3.37;90.56;100931.72;5059919;28;20446;-50
2023/12/03 06:34:00;;;;;;;0.20;0.10;;;;;;;-3.60;89.65;100931.72;5062519;28;20458;-49
2023/12/03 06:36:27;;;;;;;0.20;0.10;;;;;;;-3.61;89.44;100934.25;5072409;28;20507;-50
2023/12/03 06:38:53;;;;;;;0.20;0.10;;;;;;;-3.52;89.45;100932.03;5063614;28;20777;-51
2023/12/03 06:41:19;;;;;;;0.20;0.10;;;;;;;-3.68;89.55;100935.75;5055770;28;20474;-50
2023/12/03 06:43:46;;;;;;;0.20;0.10;;;;;;;-3.88;90.08;100934.94;5064225;28;20504;-50
2023/12/03 06:46:12;;;;;;;0.20;0.10;;;;;;;-4.00;89.86;100939.66;5055758;28;20969;-50
2023/12/03 06:48:42;;;;;;;0.20;0.10;;;;;;;-3.93;90.23;100946.88;5065686;28;20524;-49
2023/12/03 06:51:09;;;;;;;0.20;0.10;;;;;;;-4.08;90.09;100945.38;5068320;28;20814;-50
2023/12/03 06:53:36;;;;;;;0.20;0.10;;;;;;;-4.04;89.50;100950.75;5074237;28;20555;-49
2023/12/03 06:56:04;;;;;;;0.20;0.10;;;;;;;-4.08;89.74;100951.47;5069537;28;21030;-49
2023/12/03 06:58:34;;;;;;;0.20;0.10;;;;;;;-4.09;89.60;100956.59;5060590;28;20475;-49
2023/12/03 07:01:00;;;;;;;0.20;0.10;;;;;;;-4.03;89.63;100965.50;5073777;28;20992;-50
2023/12/03 07:03:27;;;;;;;0.20;0.10;;;;;;;-4.14;89.05;100971.06;5064124;28;20531;-51
2023/12/03 07:05:54;;;;;;;0.20;0.10;;;;;;;-4.23;90.00;100969.00;5060540;28;20462;-50
2023/12/03 07:08:21;;;;;;;0.20;0.10;;;;;;;-4.28;89.67;100973.09;5060442;28;20466;-50
2023/12/03 07:10:47;;;;;;;0.20;0.10;;;;;;;-4.13;89.73;100978.03;5073917;28;20445;-50
2023/12/03 07:13:14;;;;;;;0.20;0.10;;;;;;;-4.10;90.00;100978.19;5066906;28;20457;-49
2023/12/03 07:15:42;;;;;;;0.20;0.10;;;;;;;-4.20;90.00;100971.72;5057829;28;20850;-50
2023/12/03 07:18:08;;;;;;;0.20;0.10;;;;;;;-4.06;90.41;100980.94;5060079;28;20451;-50
2023/12/03 07:20:34;;;;;;;0.20;0.10;;;;;;;-4.12;90.12;100991.06;5073901;28;20533;-50
2023/12/03 07:23:01;;;;;;;0.20;0.10;;;;;;;-4.18;89.61;100991.72;5073234;28;20998;-50
2023/12/03 07:25:28;;;;;;;0.30;0.10;;;;;;;-4.17;89.50;100997.78;5064450;28;20562;-50
2023/12/03 07:27:55;;;;;;;0.20;0.10;;;;;;;-4.14;89.82;100992.72;5057707;28;20554;-50
2023/12/03 07:30:23;;;;;;;0.20;0.10;;;;;;;-4.02;90.19;101010.50;5060418;28;20454;-50
2023/12/03 07:32:50;;;;;;;0.20;0.10;;;;;;;-4.00;89.87;100995.88;5068993;28;20457;-49
2023/12/03 07:35:16;;;;;;;0.20;0.10;;;;;;;-3.93;90.30;101013.50;5064658;28;20997;-50
2023/12/03 07:37:43;;;;;;;0.20;0.10;;;;;;;-3.95;89.86;101008.25;5067217;28;20449;-49
2023/12/03 07:40:10;;;;;;;0.20;0.10;;;;;;;-4.08;89.46;101013.75;5068098;28;20477;-49
2023/12/03 07:42:37;;;;;;;0.20;0.10;;;;;;;-3.97;90.39;101011.59;5064010;28;20543;-51
2023/12/03 07:45:03;;;;;;;0.20;0.10;;;;;;;-3.98;90.01;101021.06;5056739;28;20499;-50
2023/12/03 07:47:30;;;;;;;0.20;0.10;;;;;;;-3.80;89.29;101025.28;5060167;28;20911;-51
2023/12/03 07:49:56;;;;;;;0.20;0.10;;;;;;;-3.82;89.38;101032.13;5062570;28;20458;-50
2023/12/03 07:52:23;;;;;;;0.20;0.10;;;;;;;-3.78;89.98;101031.41;5067748;28;20439;-50
2023/12/03 07:54:49;;;;;;;0.20;0.10;;;;;;;-3.67;89.67;101030.13;5065749;28;20478;-50
2023/12/03 07:57:16;;;;;;;0.20;0.10;;;;;;;-3.67;90.41;101035.34;5065748;28;20454;-48
2023/12/03 07:59:43;;;;;;;0.20;0.10;;;;;;;-3.63;89.96;101042.41;5056448;28;20455;-48
2023/12/03 08:02:10;;;;;;;0.20;0.10;;;;;;;-3.48;90.92;101037.84;5055632;28;20486;-53
2023/12/03 08:04:36;;;;;;;0.20;0.10;;;;;;;-3.49;91.37;101048.16;5063493;28;20557;-51
2023/12/03 08:07:03;;;;;;;0.20;0.10;;;;;;;-3.44;91.93;101039.72;5060387;28;20554;-49
2023/12/03 08:09:29;;;;;;;0.20;0.10;;;;;;;-3.30;91.72;101051.53;5054986;28;20509;-48
2023/12/03 08:11:56;;;;;;;0.20;0.10;;;;;;;-3.21;91.67;101040.63;5057430;28;20490;-48
2023/12/03 08:14:22;;;;;;;0.20;0.10;;;;;;;-3.23;92.69;101044.00;5069710;28;20540;-52
2023/12/03 08:16:49;;;;;;;0.20;0.10;;;;;;;-2.99;91.72;101048.44;5065581;28;20456;-53
2023/12/03 08:19:15;;;;;;;0.20;0.10;;;;;;;-2.95;91.98;101036.44;5067393;28;20449;-53
2023/12/03 08:21:43;;;;;;;0.20;0.10;;;;;;;-2.81;92.02;101032.63;5059927;28;20486;-52
2023/12/03 08:24:09;;;;;;;1.50;1.40;;;;;;;-2.86;91.22;101023.78;5054730;28;20473;-54
2023/12/03 08:26:35;;;;;;;0.20;0.10;;;;;;;-2.77;92.32;101029.31;5064484;28;20951;-52
2023/12/03 08:29:04;;;;;;;0.20;0.10;;;;;;;-2.50;92.29;101015.53;5062020;28;20803;-53
2023/12/03 08:31:30;;;;;;;0.20;0.10;;;;;;;-2.52;92.36;101020.69;5056134;28;20455;-52
2023/12/03 08:33:57;;;;;;;0.20;0.10;;;;;;;-2.39;91.80;101019.41;5056545;28;20454;-52
2023/12/03 08:36:24;;;;;;;0.20;0.10;;;;;;;-2.29;92.00;101024.09;5056798;28;20501;-53
2023/12/03 08:38:51;;;;;;;0.20;0.10;;;;;;;-2.22;91.58;101022.56;5064216;28;20512;-53
2023/12/03 08:41:18;;;;;;;0.20;0.10;;;;;;;-2.07;91.76;101025.72;5061718;28;20482;-54
2023/12/03 08:43:44;;;;;;;0.20;0.10;;;;;;;-1.90;92.17;101028.91;5069788;28;20951;-54
2023/12/03 08:46:11;;;;;;;0.20;0.10;;;;;;;-1.90;92.95;101035.00;5053178;28;20473;-54
2023/12/03 08:48:37;;;;;;;0.20;0.10;;;;;;;-1.79;92.77;101032.72;5057038;28;20451;-54
2023/12/03 08:51:04;;;;;;;2.70;2.60;;;;;;;-1.60;91.97;101031.63;5067780;28;20457;-54
2023/12/03 08:53:31;;;;;;;0.83;0.83;;;;;;;-1.57;92.48;101029.09;5065113;28;21021;-53
2023/12/03 08:55:59;;;;;;;0.20;0.10;;;;;;;-1.52;92.66;101025.81;5063597;28;20897;-54
2023/12/03 08:58:26;;;;;;;0.20;0.10;;;;;;;-1.32;92.34;101031.66;5066781;28;20485;-53
2023/12/03 09:00:53;;;;;;;0.20;0.10;;;;;;;-1.20;91.90;101041.59;5071898;28;20521;-52
2023/12/03 09:03:19;;;;;;;0.20;0.10;;;;;;;-1.04;90.95;101032.50;5065589;28;20473;-53
2023/12/03 09:05:46;;;;;;;0.20;0.10;;;;;;;-0.93;90.57;101042.44;5071022;28;20553;-52
2023/12/03 09:08:12;;;;;;;0.20;0.10;;;;;;;-0.90;91.18;101039.91;5059979;28;20538;-54
2023/12/03 09:10:39;;;;;;;0.20;0.10;;;;;;;-0.67;91.02;101037.97;5072726;28;20446;-52
2023/12/03 09:13:05;;;;;;;0.20;0.10;;;;;;;-0.59;90.70;101038.19;5070455;28;20481;-54
2023/12/03 09:15:31;;;;;;;0.20;0.10;;;;;;;-0.40;89.93;101040.47;5062727;28;20517;-53
2023/12/03 09:17:58;;;;;;;0.20;0.10;;;;;;;-0.42;89.81;101041.25;5074363;28;20472;-55
2023/12/03 09:20:24;;;;;;;0.20;0.10;;;;;;;-0.30;89.34;101036.38;5073670;28;20461;-55
2023/12/03 09:22:51;;;;;;;0.20;0.10;;;;;;;-0.27;89.13;101035.56;5053219;28;20589;-54
2023/12/03 09:25:17;;;;;;;0.20;0.10;;;;;;;-0.25;88.25;101032.19;5055432;28;20467;-54
2023/12/03 09:27:44;;;;;;;0.30;0.30;;;;;;;-0.13;88.32;101031.63;5054064;28;20462;-53
2023/12/03 09:30:11;;;;;;;0.20;0.10;;;;;;;-0.12;88.59;101029.06;5057054;28;20519;-53
2023/12/03 09:32:37;;;;;;;0.20;0.10;;;;;;;0.22;87.14;101027.28;5056552;28;20446;-54
2023/12/03 09:35:04;;;;;;;0.20;0.10;;;;;;;0.73;86.37;101034.63;5055473;28;20538;-54
2023/12/03 09:37:31;;;;;;;0.20;0.10;;;;;;;0.89;84.85;101035.00;5053854;28;20497;-53
2023/12/03 09:39:57;;;;;;;0.20;0.10;;;;;;;0.42;86.34;101033.03;5057965;28;20459;-53
2023/12/03 09:42:26;;;;;;;0.20;0.10;;;;;;;0.44;86.19;101039.16;5056270;28;21102;-51
2023/12/03 09:45:04;;;;;;;0.20;0.10;;;;;;;0.40;87.05;101039.91;5054889;28;20467;-54
2023/12/03 09:47:35;;;;;;;0.20;0.10;;;;;;;0.11;89.16;101034.84;5053308;28;20465;-53
2023/12/03 09:50:04;;;;;;;0.20;0.10;;;;;;;0.44;88.43;101028.72;5053304;28;20855;-53
2023/12/03 09:52:35;;;;;;;0.20;0.10;;;;;;;0.56;87.95;101029.91;5055089;28;20455;-52
2023/12/03 09:55:02;;;;;;;0.20;0.10;;;;;;;0.65;87.77;101036.16;5075266;28;21031;-54
2023/12/03 09:57:30;;;;;;;0.20;0.20;;;;;;;0.71;87.45;101036.34;5061867;28;20946;-54
2023/12/03 09:59:58;;;;;;;0.20;0.10;;;;;;;0.77;87.18;101031.22;5075489;28;20985;-53
2023/12/03 10:02:28;;;;;;;0.20;0.10;;;;;;;0.74;86.69;101032.03;5077010;28;20492;-53
2023/12/03 10:04:56;;;;;;;0.20;0.10;;;;;;;0.88;87.13;101028.00;5055738;28;20551;-53
2023/12/03 10:07:26;;;;;;;0.20;0.10;;;;;;;0.61;87.56;101030.00;5069164;28;20538;-54
2023/12/03 10:09:56;;;;;;;0.20;0.10;;;;;;;0.73;87.27;101024.16;5063811;28;21034;-54
2023/12/03 10:12:27;;;;;;;0.20;0.10;;;;;;;0.82;86.71;101011.28;5069656;28;20462;-54
2023/12/03 10:14:56;;;;;;;0.20;0.13;;;;;;;0.77;85.95;101023.38;5065413;28;20482;-55
2023/12/03 10:17:23;;;;;;;0.20;0.10;;;;;;;0.51;86.84;101023.66;5061874;28;20454;-54
2023/12/03 10:19:49;;;;;;;0.20;0.10;;;;;;;0.69;86.45;101017.09;5073097;28;20485;-54
2023/12/03 10:22:16;;;;;;;0.20;0.10;;;;;;;0.61;87.41;101011.69;5073029;28;20524;-54
2023/12/03 10:24:49;;;;;;;0.20;0.10;;;;;;;0.88;85.88;101009.69;5073385;28;20465;-54
2023/12/03 10:27:16;;;;;;;0.20;0.10;;;;;;;1.04;86.43;101013.53;5067476;28;20462;-54
2023/12/03 10:29:45;;;;;;;0.20;0.10;;;;;;;1.03;85.45;101010.88;5074701;28;20458;-54
2023/12/03 10:32:13;;;;;;;0.20;0.10;;;;;;;1.00;85.56;101010.81;5074909;28;20446;-54
2023/12/03 10:34:43;;;;;;;0.20;0.10;;;;;;;1.13;85.70;101021.59;5074711;28;20470;-53
2023/12/03 10:37:09;;;;;;;0.20;0.10;;;;;;;1.26;84.67;101019.22;5067475;28;20446;-53
2023/12/03 10:39:37;;;;;;;0.20;0.10;;;;;;;1.40;84.86;101017.78;5076723;28;20476;-52
2023/12/03 10:42:03;;;;;;;0.20;0.10;;;;;;;1.64;84.14;101009.50;5074373;28;20488;-53
2023/12/03 10:44:30;;;;;;;0.20;0.10;;;;;;;1.40;83.96;101007.28;5069853;28;20509;-52
2023/12/03 10:46:57;;;;;;;0.20;0.10;;;;;;;1.54;83.49;101005.84;5068264;28;20514;-54
2023/12/03 10:49:25;;;;;;;0.20;0.10;;;;;;;1.54;82.76;100994.47;5068956;28;20990;-54
2023/12/03 10:51:54;;;;;;;0.20;0.10;;;;;;;1.71;82.46;100990.41;5079864;28;20442;-53
2023/12/03 10:54:21;;;;;;;0.20;0.10;;;;;;;1.53;81.40;100988.34;5078518;28;20478;-54
2023/12/03 10:56:53;;;;;;;0.20;0.10;;;;;;;1.52;81.64;100985.69;5066942;28;20468;-54
2023/12/03 10:59:23;;;;;;;0.20;0.10;;;;;;;1.32;81.89;100980.06;5076933;28;20452;-54
2023/12/03 11:01:54;;;;;;;0.20;0.10;;;;;;;1.53;82.10;100987.47;5069897;28;20554;-53
2023/12/03 11:04:47;;;;;;;0.30;0.10;;;;;;;1.47;81.61;100976.00;5065037;28;20539;-53
2023/12/03 11:07:18;;;;;;;0.20;0.10;;;;;;;1.58;82.18;100978.81;5071742;28;20478;-55
2023/12/03 11:09:45;;;;;;;0.20;0.10;;;;;;;1.83;81.11;100980.16;5062014;28;20474;-54
2023/12/03 11:12:18;;;;;;;0.20;0.10;;;;;;;1.69;80.51;100979.03;5065752;28;20459;-54
2023/12/03 11:14:45;;;;;;;0.20;0.20;;;;;;;1.95;80.78;100977.75;5059037;28;20491;-52
2023/12/03 11:17:25;;;;;;;0.20;0.10;;;;;;;1.53;80.57;100971.75;5066539;28;20457;-54
2023/12/03 11:19:56;;;;;;;0.20;0.10;;;;;;;1.70;80.76;100973.81;5072598;28;20434;-54
2023/12/03 11:22:45;;;;;;;0.20;0.10;;;;;;;2.03;80.02;100970.00;5065545;28;20572;-54
2023/12/03 11:25:17;;;;;;;0.20;0.10;;;;;;;2.11;79.52;100968.41;5061047;28;20549;-57